createdAt,value
2016-10-22T00:00:50.572Z,1006.51
2016-10-22T00:01:50.632Z,1006.51
2016-10-22T00:02:50.637Z,1006.51
2016-10-22T00:03:50.644Z,1006.51
2016-10-22T00:04:50.602Z,1006.54
2016-10-22T00:05:50.610Z,1006.51
2016-10-22T00:06:50.615Z,1006.51
2016-10-22T00:07:50.622Z,1006.54
2016-10-22T00:08:50.630Z,1006.53
2016-10-22T00:09:50.636Z,1006.49
2016-10-22T00:10:50.643Z,1006.5
2016-10-22T00:11:50.702Z,1006.48
2016-10-22T00:12:50.659Z,1006.5
2016-10-22T00:13:50.715Z,1006.47
2016-10-22T00:14:50.672Z,1006.51
2016-10-22T00:15:50.680Z,1006.47
2016-10-22T00:16:50.736Z,1006.46
2016-10-22T00:17:50.692Z,1006.48
2016-10-22T00:18:50.753Z,1006.46
2016-10-22T00:19:50.758Z,1006.46
2016-10-22T00:20:50.712Z,1006.5
2016-10-22T00:21:50.719Z,1006.41
2016-10-22T00:22:50.729Z,1006.45
2016-10-22T00:23:50.786Z,1006.43
2016-10-22T00:24:50.742Z,1006.46
2016-10-22T00:25:50.748Z,1006.43
2016-10-22T00:26:50.757Z,1006.43
2016-10-22T00:27:50.764Z,1006.44
2016-10-22T00:28:50.771Z,1006.47
2016-10-22T00:29:50.777Z,1006.42
2016-10-22T00:30:50.785Z,1006.45
2016-10-22T00:31:50.792Z,1006.45
2016-10-22T00:32:50.798Z,1006.46
2016-10-22T00:33:50.855Z,1006.46
2016-10-22T00:34:50.863Z,1006.47
2016-10-22T00:35:50.868Z,1006.48
2016-10-22T00:36:50.877Z,1006.45
2016-10-22T00:37:50.834Z,1006.46
2016-10-22T00:38:50.891Z,1006.47
2016-10-22T00:39:50.846Z,1006.43
2016-10-22T00:40:50.855Z,1006.46
2016-10-22T00:41:50.861Z,1006.45
2016-10-22T00:42:50.867Z,1006.45
2016-10-22T00:43:50.876Z,1006.42
2016-10-22T00:44:50.934Z,1006.41
2016-10-22T00:45:50.941Z,1006.42
2016-10-22T00:46:50.895Z,1006.46
2016-10-22T00:47:50.954Z,1006.46
2016-10-22T00:48:50.912Z,1006.43
2016-10-22T00:49:50.968Z,1006.44
2016-10-22T00:50:50.974Z,1006.43
2016-10-22T00:51:50.981Z,1006.39
2016-10-22T00:52:50.939Z,1006.41
2016-10-22T00:53:50.945Z,1006.4
2016-10-22T00:54:50.953Z,1006.42
2016-10-22T00:55:50.958Z,1006.43
2016-10-22T00:56:50.965Z,1006.4
2016-10-22T00:57:50.972Z,1006.4
2016-10-22T00:58:52.733Z,1006.4
2016-10-22T00:59:50.989Z,1006.42
2016-10-22T01:00:51.046Z,1006.39
2016-10-22T01:01:51.002Z,1006.42
2016-10-22T01:02:51.009Z,1006.4
2016-10-22T01:03:51.017Z,1006.4
2016-10-22T01:04:51.025Z,1006.4
2016-10-22T01:05:51.030Z,1006.42
2016-10-22T01:06:51.088Z,1006.43
2016-10-22T01:07:51.045Z,1006.42
2016-10-22T01:08:51.051Z,1006.41
2016-10-22T01:09:51.059Z,1006.37
2016-10-22T01:10:51.066Z,1006.38
2016-10-22T01:11:51.071Z,1006.39
2016-10-22T01:12:51.080Z,1006.35
2016-10-22T01:13:51.087Z,1006.33
2016-10-22T01:14:51.145Z,1006.39
2016-10-22T01:15:51.099Z,1006.33
2016-10-22T01:16:51.157Z,1006.32
2016-10-22T01:17:51.116Z,1006.32
2016-10-22T01:18:51.123Z,1006.31
2016-10-22T01:19:51.130Z,1006.32
2016-10-22T01:20:51.185Z,1006.3
2016-10-22T01:21:51.193Z,1006.28
2016-10-22T01:22:51.199Z,1006.34
2016-10-22T01:23:51.157Z,1006.31
2016-10-22T01:24:51.163Z,1006.34
2016-10-22T01:25:51.171Z,1006.29
2016-10-22T01:26:51.178Z,1006.29
2016-10-22T01:27:51.184Z,1006.28
2016-10-22T01:28:53.995Z,1006.24
2016-10-22T01:29:51.199Z,1006.28
2016-10-22T01:30:51.206Z,1006.31
2016-10-22T01:31:51.213Z,1006.23
2016-10-22T01:32:51.220Z,1006.27
2016-10-22T01:33:51.227Z,1006.24
2016-10-22T01:34:51.234Z,1006.22
2016-10-22T01:35:51.241Z,1006.25
2016-10-22T01:36:51.298Z,1006.21
2016-10-22T01:37:51.304Z,1006.22
2016-10-22T01:38:51.312Z,1006.21
2016-10-22T01:39:51.268Z,1006.24
2016-10-22T01:40:51.274Z,1006.23
2016-10-22T01:41:51.283Z,1006.2
2016-10-22T01:42:51.290Z,1006.23
2016-10-22T01:43:51.295Z,1006.21
2016-10-22T01:44:51.302Z,1006.2
2016-10-22T01:45:51.309Z,1006.24
2016-10-22T01:46:51.317Z,1006.18
2016-10-22T01:47:51.324Z,1006.2
2016-10-22T01:48:51.331Z,1006.19
2016-10-22T01:49:51.335Z,1006.22
2016-10-22T01:50:51.344Z,1006.26
2016-10-22T01:51:51.352Z,1006.22
2016-10-22T01:52:51.358Z,1006.23
2016-10-22T01:53:51.414Z,1006.25
2016-10-22T01:54:51.373Z,1006.21
2016-10-22T01:55:51.429Z,1006.23
2016-10-22T01:56:51.386Z,1006.19
2016-10-22T01:57:51.443Z,1006.21
2016-10-22T01:58:51.401Z,1006.21
2016-10-22T01:59:51.407Z,1006.18
2016-10-22T02:00:51.414Z,1006.13
2016-10-22T02:01:51.421Z,1006.14
2016-10-22T02:02:51.428Z,1006.15
2016-10-22T02:03:51.435Z,1006.15
2016-10-22T02:04:51.442Z,1006.12
2016-10-22T02:05:51.448Z,1006.16
2016-10-22T02:06:51.504Z,1006.12
2016-10-22T02:07:51.462Z,1006.1
2016-10-22T02:08:51.519Z,1006.13
2016-10-22T02:09:51.528Z,1006.07
2016-10-22T02:10:51.534Z,1006.05
2016-10-22T02:11:51.490Z,1006.07
2016-10-22T02:12:51.496Z,1006.05
2016-10-22T02:13:51.503Z,1006.06
2016-10-22T02:14:51.509Z,1006.05
2016-10-22T02:15:51.516Z,1006.09
2016-10-22T02:16:51.525Z,1006.07
2016-10-22T02:17:51.580Z,1006.12
2016-10-22T02:18:51.538Z,1006.08
2016-10-22T02:19:51.545Z,1006.06
2016-10-22T02:20:51.551Z,1006.08
2016-10-22T02:21:51.557Z,1006.08
2016-10-22T02:22:51.564Z,1006.1
2016-10-22T02:23:51.574Z,1006.11
2016-10-22T02:24:51.630Z,1006.06
2016-10-22T02:25:51.636Z,1006.08
2016-10-22T02:26:51.594Z,1006.07
2016-10-22T02:27:51.600Z,1006.05
2016-10-22T02:28:51.606Z,1006.05
2016-10-22T02:29:51.614Z,1006.02
2016-10-22T02:30:51.623Z,1006.05
2016-10-22T02:31:51.678Z,1006.04
2016-10-22T02:32:51.633Z,1006.04
2016-10-22T02:33:51.692Z,1006.05
2016-10-22T02:34:51.648Z,1006.05
2016-10-22T02:35:51.706Z,1006.03
2016-10-22T02:36:51.662Z,1006.03
2016-10-22T02:37:51.719Z,1006.04
2016-10-22T02:38:51.726Z,1006.02
2016-10-22T02:39:51.732Z,1006.04
2016-10-22T02:40:51.739Z,1006.04
2016-10-22T02:41:51.747Z,1006
2016-10-22T02:42:51.704Z,1006.03
2016-10-22T02:43:51.711Z,1006
2016-10-22T02:44:51.717Z,1006.02
2016-10-22T02:45:51.724Z,1006.02
2016-10-22T02:46:51.729Z,1006.01
2016-10-22T02:47:51.787Z,1005.99
2016-10-22T02:48:51.793Z,1006.01
2016-10-22T02:49:51.801Z,1006
2016-10-22T02:50:51.757Z,1005.99
2016-10-22T02:51:51.764Z,1005.95
2016-10-22T02:52:51.771Z,1005.99
2016-10-22T02:53:51.778Z,1005.99
2016-10-22T02:54:51.783Z,1005.95
2016-10-22T02:55:51.842Z,1005.98
2016-10-22T02:56:51.848Z,1005.97
2016-10-22T02:57:51.805Z,1005.95
2016-10-22T02:58:51.812Z,1005.99
2016-10-22T02:59:51.819Z,1005.97
2016-10-22T03:00:51.827Z,1005.99
2016-10-22T03:01:51.833Z,1005.97
2016-10-22T03:02:51.845Z,1005.99
2016-10-22T03:03:51.847Z,1005.96
2016-10-22T03:04:51.855Z,1005.97
2016-10-22T03:05:51.861Z,1005.95
2016-10-22T03:06:51.867Z,1005.96
2016-10-22T03:07:51.924Z,1005.98
2016-10-22T03:08:51.931Z,1005.97
2016-10-22T03:09:51.898Z,1005.95
2016-10-22T03:10:51.895Z,1005.98
2016-10-22T03:11:51.952Z,1005.94
2016-10-22T03:12:51.909Z,1005.94
2016-10-22T03:13:51.965Z,1005.93
2016-10-22T03:14:51.922Z,1005.95
2016-10-22T03:15:51.929Z,1005.96
2016-10-22T03:16:51.935Z,1005.98
2016-10-22T03:17:51.942Z,1005.93
2016-10-22T03:18:51.949Z,1005.93
2016-10-22T03:19:51.956Z,1005.94
2016-10-22T03:20:51.964Z,1005.93
2016-10-22T03:21:51.971Z,1005.94
2016-10-22T03:22:51.979Z,1005.92
2016-10-22T03:23:51.983Z,1005.92
2016-10-22T03:24:51.991Z,1005.96
2016-10-22T03:25:51.999Z,1005.94
2016-10-22T03:26:52.056Z,1005.94
2016-10-22T03:27:52.062Z,1005.94
2016-10-22T03:28:52.020Z,1005.98
2016-10-22T03:29:52.081Z,1005.96
2016-10-22T03:30:52.032Z,1005.97
2016-10-22T03:31:52.039Z,1005.98
2016-10-22T03:32:52.096Z,1005.96
2016-10-22T03:33:52.054Z,1005.99
2016-10-22T03:34:52.110Z,1005.97
2016-10-22T03:35:52.068Z,1006.02
2016-10-22T03:36:52.074Z,1006
2016-10-22T03:37:52.085Z,1006.04
2016-10-22T03:38:52.087Z,1006.02
2016-10-22T03:39:52.095Z,1006.03
2016-10-22T03:40:52.102Z,1006.05
2016-10-22T03:41:52.107Z,1006.06
2016-10-22T03:42:52.116Z,1006.04
2016-10-22T03:43:52.172Z,1006.08
2016-10-22T03:44:52.130Z,1006.09
2016-10-22T03:45:52.185Z,1006.1
2016-10-22T03:46:52.143Z,1006.1
2016-10-22T03:47:52.149Z,1006.07
2016-10-22T03:48:52.157Z,1006.09
2016-10-22T03:49:52.163Z,1006.09
2016-10-22T03:50:52.170Z,1006.07
2016-10-22T03:51:52.176Z,1006.07
2016-10-22T03:52:52.183Z,1006.07
2016-10-22T03:53:52.191Z,1006.08
2016-10-22T03:54:52.198Z,1006.1
2016-10-22T03:55:52.205Z,1006.12
2016-10-22T03:56:52.213Z,1006.08
2016-10-22T03:57:52.268Z,1006.07
2016-10-22T03:58:52.227Z,1006.09
2016-10-22T03:59:52.283Z,1006.1
2016-10-22T04:00:52.238Z,1006.08
2016-10-22T04:01:52.297Z,1006.04
2016-10-22T04:02:52.252Z,1006.06
2016-10-22T04:03:52.259Z,1006.09
2016-10-22T04:04:52.265Z,1006.05
2016-10-22T04:05:52.273Z,1006.05
2016-10-22T04:06:52.279Z,1006.06
2016-10-22T04:07:52.287Z,1006.08
2016-10-22T04:08:52.294Z,1006.08
2016-10-22T04:09:52.299Z,1006.06
2016-10-22T04:10:52.307Z,1006.07
2016-10-22T04:11:52.315Z,1006.09
2016-10-22T04:12:52.322Z,1006.03
2016-10-22T04:13:52.330Z,1006.07
2016-10-22T04:14:52.385Z,1006.06
2016-10-22T04:15:52.392Z,1006.06
2016-10-22T04:16:52.400Z,1006.05
2016-10-22T04:17:52.657Z,1006.05
2016-10-22T04:18:52.363Z,1006.06
2016-10-22T04:19:52.369Z,1006.08
2016-10-22T04:20:52.378Z,1006.08
2016-10-22T04:21:52.383Z,1006.09
2016-10-22T04:22:52.391Z,1006.1
2016-10-22T04:23:52.398Z,1006.09
2016-10-22T04:24:52.405Z,1006.11
2016-10-22T04:25:52.411Z,1006.07
2016-10-22T04:26:52.418Z,1006.09
2016-10-22T04:27:52.427Z,1006.12
2016-10-22T04:28:52.483Z,1006.1
2016-10-22T04:29:52.439Z,1006.11
2016-10-22T04:30:52.497Z,1006.09
2016-10-22T04:31:52.454Z,1006.04
2016-10-22T04:32:52.510Z,1006.09
2016-10-22T04:33:52.467Z,1006.1
2016-10-22T04:34:52.524Z,1006.08
2016-10-22T04:35:52.482Z,1006.09
2016-10-22T04:36:52.487Z,1006.1
2016-10-22T04:37:52.495Z,1006.07
2016-10-22T04:38:52.503Z,1006.1
2016-10-22T04:39:52.559Z,1006.07
2016-10-22T04:40:52.816Z,1006.06
2016-10-22T04:41:52.523Z,1006.1
2016-10-22T04:42:52.580Z,1006.08
2016-10-22T04:43:52.587Z,1006.08
2016-10-22T04:44:52.544Z,1006.06
2016-10-22T04:45:52.550Z,1006.1
2016-10-22T04:46:52.558Z,1006.12
2016-10-22T04:47:52.614Z,1006.16
2016-10-22T04:48:52.621Z,1006.14
2016-10-22T04:49:52.578Z,1006.14
2016-10-22T04:50:52.585Z,1006.16
2016-10-22T04:51:52.594Z,1006.18
2016-10-22T04:52:52.601Z,1006.14
2016-10-22T04:53:52.606Z,1006.18
2016-10-22T04:54:52.613Z,1006.14
2016-10-22T04:55:52.621Z,1006.15
2016-10-22T04:56:52.678Z,1006.15
2016-10-22T04:57:52.635Z,1006.19
2016-10-22T04:59:52.697Z,1006.21
2016-10-22T05:00:52.655Z,1006.23
2016-10-22T05:01:52.712Z,1006.21
2016-10-22T05:02:52.718Z,1006.25
2016-10-22T05:03:52.725Z,1006.24
2016-10-22T05:04:52.682Z,1006.18
2016-10-22T05:05:52.687Z,1006.22
2016-10-22T05:06:52.695Z,1006.22
2016-10-22T05:07:52.703Z,1006.24
2016-10-22T05:08:52.710Z,1006.23
2016-10-22T05:09:52.715Z,1006.26
2016-10-22T05:10:52.722Z,1006.22
2016-10-22T05:11:52.779Z,1006.23
2016-10-22T05:12:52.736Z,1006.22
2016-10-22T05:13:52.742Z,1006.27
2016-10-22T05:14:52.749Z,1006.26
2016-10-22T05:15:52.757Z,1006.24
2016-10-22T05:16:53.013Z,1006.27
2016-10-22T05:17:52.769Z,1006.29
2016-10-22T05:18:52.827Z,1006.25
2016-10-22T05:19:52.835Z,1006.24
2016-10-22T05:20:52.841Z,1006.26
2016-10-22T05:21:52.798Z,1006.26
2016-10-22T05:22:52.855Z,1006.31
2016-10-22T05:23:52.814Z,1006.31
2016-10-22T05:24:52.818Z,1006.32
2016-10-22T05:25:52.825Z,1006.31
2016-10-22T05:26:52.832Z,1006.32
2016-10-22T05:27:52.890Z,1006.35
2016-10-22T05:28:52.847Z,1006.36
2016-10-22T05:29:52.853Z,1006.37
2016-10-22T05:30:52.861Z,1006.4
2016-10-22T05:31:52.868Z,1006.39
2016-10-22T05:32:52.924Z,1006.41
2016-10-22T05:33:52.881Z,1006.44
2016-10-22T05:34:52.938Z,1006.42
2016-10-22T05:35:52.944Z,1006.43
2016-10-22T05:36:52.901Z,1006.45
2016-10-22T05:37:52.908Z,1006.46
2016-10-22T05:38:52.915Z,1006.49
2016-10-22T05:39:52.922Z,1006.5
2016-10-22T05:40:52.929Z,1006.47
2016-10-22T05:41:52.936Z,1006.51
2016-10-22T05:42:52.992Z,1006.53
2016-10-22T05:43:52.950Z,1006.51
2016-10-22T05:44:52.955Z,1006.49
2016-10-22T05:45:52.963Z,1006.51
2016-10-22T05:46:52.970Z,1006.46
2016-10-22T05:47:52.976Z,1006.51
2016-10-22T05:48:52.985Z,1006.54
2016-10-22T05:49:52.990Z,1006.5
2016-10-22T05:50:53.048Z,1006.51
2016-10-22T05:51:53.053Z,1006.54
2016-10-22T05:52:53.062Z,1006.55
2016-10-22T05:53:53.019Z,1006.54
2016-10-22T05:54:53.025Z,1006.55
2016-10-22T05:55:53.032Z,1006.52
2016-10-22T05:56:53.039Z,1006.62
2016-10-22T05:57:53.046Z,1006.58
2016-10-22T05:58:53.053Z,1006.6
2016-10-22T05:59:53.060Z,1006.61
2016-10-22T06:00:53.066Z,1006.6
2016-10-22T06:01:53.122Z,1006.61
2016-10-22T06:02:53.080Z,1006.62
2016-10-22T06:03:53.089Z,1006.66
2016-10-22T06:04:53.094Z,1006.65
2016-10-22T06:05:53.154Z,1006.64
2016-10-22T06:06:53.109Z,1006.67
2016-10-22T06:07:53.114Z,1006.7
2016-10-22T06:08:53.122Z,1006.68
2016-10-22T06:09:53.179Z,1006.69
2016-10-22T06:10:53.136Z,1006.7
2016-10-22T06:11:53.142Z,1006.71
2016-10-22T06:12:53.149Z,1006.7
2016-10-22T06:13:53.156Z,1006.69
2016-10-22T06:14:53.163Z,1006.72
2016-10-22T06:15:53.169Z,1006.73
2016-10-22T06:16:53.177Z,1006.74
2016-10-22T06:17:53.184Z,1006.73
2016-10-22T06:18:53.190Z,1006.7
2016-10-22T06:19:53.197Z,1006.77
2016-10-22T06:20:53.205Z,1006.76
2016-10-22T06:21:53.262Z,1006.75
2016-10-22T06:22:53.268Z,1006.79
2016-10-22T06:23:53.224Z,1006.82
2016-10-22T06:24:53.231Z,1006.8
2016-10-22T06:25:53.238Z,1006.83
2016-10-22T06:26:53.245Z,1006.88
2016-10-22T06:27:53.282Z,1006.87
2016-10-22T06:28:53.259Z,1006.89
2016-10-22T06:29:53.266Z,1006.91
2016-10-22T06:30:53.272Z,1006.93
2016-10-22T06:31:53.279Z,1006.92
2016-10-22T06:32:53.289Z,1006.95
2016-10-22T06:33:53.349Z,1006.95
2016-10-22T06:34:53.300Z,1006.97
2016-10-22T06:35:53.307Z,1006.96
2016-10-22T06:36:53.463Z,1006.97
2016-10-22T06:37:53.370Z,1007.03
2016-10-22T06:38:53.327Z,1006.99
2016-10-22T06:39:53.383Z,1007.03
2016-10-22T06:40:53.339Z,1007.02
2016-10-22T06:41:53.346Z,1006.98
2016-10-22T06:42:53.353Z,1007.04
2016-10-22T06:43:53.361Z,1007.05
2016-10-22T06:44:53.372Z,1007.06
2016-10-22T06:45:53.373Z,1007.04
2016-10-22T06:46:53.381Z,1007.02
2016-10-22T06:47:53.388Z,1007.04
2016-10-22T06:48:53.396Z,1007.08
2016-10-22T06:49:53.402Z,1007.07
2016-10-22T06:50:53.408Z,1007.11
2016-10-22T06:51:53.414Z,1007.11
2016-10-22T06:52:53.424Z,1007.13
2016-10-22T06:53:53.479Z,1007.1
2016-10-22T06:54:53.486Z,1007.14
2016-10-22T06:55:53.492Z,1007.12
2016-10-22T06:56:53.449Z,1007.17
2016-10-22T06:57:53.457Z,1007.18
2016-10-22T06:59:53.469Z,1007.19
2016-10-22T07:00:53.477Z,1007.19
2016-10-22T07:01:53.483Z,1007.17
2016-10-22T07:02:53.489Z,1007.18
2016-10-22T07:03:53.548Z,1007.19
2016-10-22T07:04:53.505Z,1007.19
2016-10-22T07:05:53.512Z,1007.19
2016-10-22T07:06:53.568Z,1007.21
2016-10-22T07:07:53.524Z,1007.19
2016-10-22T07:08:53.531Z,1007.21
2016-10-22T07:09:53.588Z,1007.24
2016-10-22T07:10:53.594Z,1007.26
2016-10-22T07:11:53.603Z,1007.22
2016-10-22T07:12:53.559Z,1007.28
2016-10-22T07:13:53.564Z,1007.25
2016-10-22T07:14:53.572Z,1007.25
2016-10-22T07:15:53.580Z,1007.26
2016-10-22T07:16:53.587Z,1007.23
2016-10-22T07:17:53.593Z,1007.23
2016-10-22T07:18:53.599Z,1007.26
2016-10-22T07:19:53.607Z,1007.28
2016-10-22T07:20:53.613Z,1007.3
2016-10-22T07:21:53.621Z,1007.3
2016-10-22T07:22:53.628Z,1007.3
2016-10-22T07:23:53.634Z,1007.33
2016-10-22T07:24:53.641Z,1007.32
2016-10-22T07:25:53.648Z,1007.32
2016-10-22T07:26:53.715Z,1007.33
2016-10-22T07:27:53.962Z,1007.3
2016-10-22T07:28:53.668Z,1007.32
2016-10-22T07:29:53.676Z,1007.33
2016-10-22T07:30:53.683Z,1007.31
2016-10-22T07:31:53.688Z,1007.35
2016-10-22T07:32:53.695Z,1007.33
2016-10-22T07:33:53.702Z,1007.3
2016-10-22T07:34:53.709Z,1007.31
2016-10-22T07:35:53.715Z,1007.28
2016-10-22T07:36:53.772Z,1007.31
2016-10-22T07:37:53.729Z,1007.36
2016-10-22T07:38:53.751Z,1007.37
2016-10-22T07:39:53.743Z,1007.34
2016-10-22T07:40:53.800Z,1007.36
2016-10-22T07:41:53.808Z,1007.34
2016-10-22T07:42:53.813Z,1007.39
2016-10-22T07:43:53.771Z,1007.4
2016-10-22T07:44:53.840Z,1007.37
2016-10-22T07:45:53.838Z,1007.39
2016-10-22T07:46:53.841Z,1007.41
2016-10-22T07:47:53.799Z,1007.38
2016-10-22T07:48:53.805Z,1007.38
2016-10-22T07:49:53.812Z,1007.4
2016-10-22T07:50:53.818Z,1007.39
2016-10-22T07:51:53.878Z,1007.43
2016-10-22T07:52:53.835Z,1007.4
2016-10-22T07:53:53.841Z,1007.39
2016-10-22T07:54:53.854Z,1007.4
2016-10-22T07:55:53.928Z,1007.41
2016-10-22T07:56:53.922Z,1007.44
2016-10-22T07:57:53.918Z,1007.44
2016-10-22T07:58:53.875Z,1007.43
2016-10-22T07:59:53.884Z,1007.44
2016-10-22T08:00:53.940Z,1007.43
2016-10-22T08:01:53.900Z,1007.42
2016-10-22T08:02:53.953Z,1007.45
2016-10-22T08:03:53.912Z,1007.44
2016-10-22T08:04:53.918Z,1007.48
2016-10-22T08:05:53.978Z,1007.47
2016-10-22T08:06:53.931Z,1007.47
2016-10-22T08:07:53.953Z,1007.49
2016-10-22T08:08:53.945Z,1007.48
2016-10-22T08:09:54.003Z,1007.48
2016-10-22T08:10:53.960Z,1007.51
2016-10-22T08:11:53.967Z,1007.53
2016-10-22T08:12:54.024Z,1007.52
2016-10-22T08:13:54.031Z,1007.48
2016-10-22T08:14:54.039Z,1007.52
2016-10-22T08:15:53.995Z,1007.52
2016-10-22T08:16:54.002Z,1007.49
2016-10-22T08:17:54.009Z,1007.5
2016-10-22T08:18:54.016Z,1007.52
2016-10-22T08:19:54.022Z,1007.5
2016-10-22T08:20:54.031Z,1007.52
2016-10-22T08:21:54.038Z,1007.5
2016-10-22T08:22:54.053Z,1007.53
2016-10-22T08:23:54.052Z,1007.51
2016-10-22T08:24:54.108Z,1007.54
2016-10-22T08:25:54.068Z,1007.54
2016-10-22T08:26:54.123Z,1007.58
2016-10-22T08:27:54.082Z,1007.56
2016-10-22T08:28:54.088Z,1007.57
2016-10-22T08:29:54.145Z,1007.56
2016-10-22T08:30:54.101Z,1007.59
2016-10-22T08:31:54.110Z,1007.53
2016-10-22T08:32:54.119Z,1007.59
2016-10-22T08:33:54.124Z,1007.55
2016-10-22T08:34:54.132Z,1007.6
2016-10-22T08:35:54.139Z,1007.57
2016-10-22T08:36:54.147Z,1007.57
2016-10-22T08:37:54.153Z,1007.54
2016-10-22T08:38:54.160Z,1007.56
2016-10-22T08:39:54.168Z,1007.58
2016-10-22T08:40:54.175Z,1007.58
2016-10-22T08:41:54.182Z,1007.58
2016-10-22T08:42:54.189Z,1007.58
2016-10-22T08:43:54.198Z,1007.57
2016-10-22T08:44:54.257Z,1007.58
2016-10-22T08:45:54.212Z,1007.62
2016-10-22T08:46:54.431Z,1007.6
2016-10-22T08:47:54.226Z,1007.57
2016-10-22T08:48:54.233Z,1007.59
2016-10-22T08:49:54.241Z,1007.6
2016-10-22T08:50:54.249Z,1007.56
2016-10-22T08:51:54.256Z,1007.57
2016-10-22T08:52:54.263Z,1007.6
2016-10-22T08:53:54.271Z,1007.61
2016-10-22T08:54:54.279Z,1007.64
2016-10-22T08:55:54.286Z,1007.65
2016-10-22T08:56:54.297Z,1007.67
2016-10-22T08:57:54.303Z,1007.64
2016-10-22T08:58:54.309Z,1007.7
2016-10-22T08:59:54.316Z,1007.72
2016-10-22T09:00:54.323Z,1007.71
2016-10-22T09:01:54.331Z,1007.69
2016-10-22T09:02:54.340Z,1007.72
2016-10-22T09:03:54.345Z,1007.73
2016-10-22T09:04:54.353Z,1007.72
2016-10-22T09:05:54.362Z,1007.71
2016-10-22T09:06:54.368Z,1007.74
2016-10-22T09:07:54.425Z,1007.77
2016-10-22T09:08:54.383Z,1007.76
2016-10-22T09:09:54.391Z,1007.77
2016-10-22T09:10:54.450Z,1007.8
2016-10-22T09:11:54.407Z,1007.8
2016-10-22T09:12:54.413Z,1007.84
2016-10-22T09:13:54.422Z,1007.82
2016-10-22T09:14:54.428Z,1007.85
2016-10-22T09:15:54.435Z,1007.83
2016-10-22T09:16:54.444Z,1007.84
2016-10-22T09:17:54.501Z,1007.83
2016-10-22T09:18:54.458Z,1007.81
2016-10-22T09:19:54.466Z,1007.79
2016-10-22T09:20:54.480Z,1007.83
2016-10-22T09:21:54.480Z,1007.83
2016-10-22T09:22:54.503Z,1007.84
2016-10-22T09:23:54.497Z,1007.85
2016-10-22T09:24:54.505Z,1007.89
2016-10-22T09:25:54.510Z,1007.89
2016-10-22T09:26:54.569Z,1007.87
2016-10-22T09:27:54.527Z,1007.89
2016-10-22T09:28:54.584Z,1007.9
2016-10-22T09:29:54.542Z,1007.92
2016-10-22T09:30:54.549Z,1007.92
2016-10-22T09:31:54.707Z,1007.91
2016-10-22T09:32:54.563Z,1007.87
2016-10-22T09:33:54.571Z,1007.88
2016-10-22T09:34:54.579Z,1007.88
2016-10-22T09:35:54.586Z,1007.91
2016-10-22T09:36:54.607Z,1007.9
2016-10-22T09:37:54.603Z,1007.93
2016-10-22T09:38:54.609Z,1007.95
2016-10-22T09:39:54.616Z,1007.93
2016-10-22T09:40:54.624Z,1007.99
2016-10-22T09:41:54.935Z,1007.95
2016-10-22T09:42:54.656Z,1008
2016-10-22T09:43:54.661Z,1007.98
2016-10-22T09:44:54.716Z,1008
2016-10-22T09:45:54.663Z,1008.03
2016-10-22T09:46:54.669Z,1007.98
2016-10-22T09:47:54.677Z,1008.03
2016-10-22T09:48:54.685Z,1008.01
2016-10-22T09:49:54.691Z,1007.99
2016-10-22T09:50:54.699Z,1007.98
2016-10-22T09:51:54.707Z,1007.98
2016-10-22T09:52:54.715Z,1007.96
2016-10-22T09:53:54.722Z,1007.98
2016-10-22T09:54:54.729Z,1008.02
2016-10-22T09:55:54.737Z,1007.99
2016-10-22T09:56:54.745Z,1008
2016-10-22T09:57:54.829Z,1007.97
2016-10-22T09:58:54.835Z,1007.98
2016-10-22T09:59:54.817Z,1008
2016-10-22T10:00:54.775Z,1007.96
2016-10-22T10:01:54.781Z,1008.02
2016-10-22T10:02:54.840Z,1007.98
2016-10-22T10:03:54.796Z,1007.98
2016-10-22T10:04:54.804Z,1007.98
2016-10-22T10:05:54.813Z,1007.98
2016-10-22T10:06:54.819Z,1007.97
2016-10-22T10:07:54.827Z,1007.97
2016-10-22T10:08:54.835Z,1007.99
2016-10-22T10:09:54.841Z,1008.01
2016-10-22T10:10:54.848Z,1008.02
2016-10-22T10:11:54.855Z,1007.97
2016-10-22T10:12:54.864Z,1008.01
2016-10-22T10:13:54.872Z,1008
2016-10-22T10:14:54.881Z,1007.98
2016-10-22T10:15:54.889Z,1007.99
2016-10-22T10:16:54.895Z,1008.02
2016-10-22T10:17:54.902Z,1008.03
2016-10-22T10:18:54.910Z,1008.05
2016-10-22T10:19:54.968Z,1007.99
2016-10-22T10:20:54.926Z,1008.04
2016-10-22T10:21:54.933Z,1008
2016-10-22T10:22:54.941Z,1008.03
2016-10-22T10:23:54.948Z,1007.99
2016-10-22T10:24:54.956Z,1007.99
2016-10-22T10:25:54.963Z,1007.98
2016-10-22T10:26:54.973Z,1007.98
2016-10-22T10:27:54.978Z,1007.98
2016-10-22T10:28:54.986Z,1007.97
2016-10-22T10:29:54.994Z,1008.01
2016-10-22T10:30:55.002Z,1007.98
2016-10-22T10:31:55.010Z,1007.99
2016-10-22T10:32:55.019Z,1007.98
2016-10-22T10:33:55.026Z,1007.97
2016-10-22T10:34:55.032Z,1007.97
2016-10-22T10:35:55.041Z,1007.97
2016-10-22T10:36:55.099Z,1008
2016-10-22T10:37:55.057Z,1008
2016-10-22T10:38:55.065Z,1007.99
2016-10-22T10:39:55.071Z,1007.95
2016-10-22T10:40:55.130Z,1008.01
2016-10-22T10:41:55.085Z,1008
2016-10-22T10:42:55.095Z,1008
2016-10-22T10:43:55.102Z,1008.01
2016-10-22T10:44:55.109Z,1008
2016-10-22T10:45:55.116Z,1008.03
2016-10-22T10:46:55.124Z,1008.01
2016-10-22T10:47:55.132Z,1008.04
2016-10-22T10:48:55.140Z,1008.03
2016-10-22T10:49:55.147Z,1008.07
2016-10-22T10:50:55.204Z,1008.03
2016-10-22T10:51:55.162Z,1008.05
2016-10-22T10:52:55.219Z,1008.04
2016-10-22T10:53:55.177Z,1008.03
2016-10-22T10:54:55.184Z,1008.06
2016-10-22T10:55:55.193Z,1008.08
2016-10-22T10:56:55.200Z,1008.05
2016-10-22T10:57:55.209Z,1008.07
2016-10-22T10:58:55.216Z,1008.06
2016-10-22T10:59:55.224Z,1008.03
2016-10-22T11:00:55.231Z,1008.02
2016-10-22T11:01:55.288Z,1008.02
2016-10-22T11:02:55.296Z,1008.04
2016-10-22T11:03:55.253Z,1007.98
2016-10-22T11:04:55.260Z,1008.01
2016-10-22T11:05:55.327Z,1008.01
2016-10-22T11:06:55.327Z,1008.02
2016-10-22T11:07:55.340Z,1008
2016-10-22T11:08:55.292Z,1008.01
2016-10-22T11:09:55.300Z,1008.03
2016-10-22T11:10:55.308Z,1008
2016-10-22T11:11:55.314Z,1008
2016-10-22T11:12:55.322Z,1008.04
2016-10-22T11:13:55.333Z,1007.99
2016-10-22T11:14:55.337Z,1008.01
2016-10-22T11:15:55.345Z,1008.01
2016-10-22T11:16:55.354Z,1008.04
2016-10-22T11:17:55.361Z,1008.07
2016-10-22T11:18:55.368Z,1008.06
2016-10-22T11:19:55.376Z,1008.02
2016-10-22T11:20:55.384Z,1008.07
2016-10-22T11:21:55.392Z,1008.05
2016-10-22T11:22:55.650Z,1008.06
2016-10-22T11:23:55.456Z,1008.05
2016-10-22T11:24:55.415Z,1008.04
2016-10-22T11:25:55.422Z,1008.03
2016-10-22T11:26:55.429Z,1007.99
2016-10-22T11:27:55.437Z,1008.01
2016-10-22T11:28:55.445Z,1008.02
2016-10-22T11:29:55.452Z,1008.01
2016-10-22T11:30:55.460Z,1008.03
2016-10-22T11:31:55.468Z,1008.05
2016-10-22T11:32:55.475Z,1008.05
2016-10-22T11:33:55.482Z,1008.05
2016-10-22T11:34:55.562Z,1008.06
2016-10-22T11:35:55.499Z,1008.07
2016-10-22T11:36:55.506Z,1008.05
2016-10-22T11:37:55.512Z,1008.09
2016-10-22T11:38:55.520Z,1008.09
2016-10-22T11:39:55.527Z,1008.08
2016-10-22T11:40:55.586Z,1008.12
2016-10-22T11:41:55.543Z,1008.07
2016-10-22T11:42:55.550Z,1008.08
2016-10-22T11:43:55.559Z,1008.1
2016-10-22T11:44:55.567Z,1008.07
2016-10-22T11:45:55.573Z,1008.07
2016-10-22T11:46:55.585Z,1008.1
2016-10-22T11:47:55.589Z,1008.08
2016-10-22T11:48:55.597Z,1008.07
2016-10-22T11:49:55.605Z,1008.1
2016-10-22T11:50:55.662Z,1008.13
2016-10-22T11:51:55.619Z,1008.11
2016-10-22T11:52:55.626Z,1008.08
2016-10-22T11:53:55.635Z,1008.11
2016-10-22T11:54:55.716Z,1008.14
2016-10-22T11:55:55.650Z,1008.12
2016-10-22T11:56:55.658Z,1008.12
2016-10-22T11:57:55.667Z,1008.13
2016-10-22T11:58:55.672Z,1008.13
2016-10-22T11:59:55.681Z,1008.12
2016-10-22T12:00:55.690Z,1008.11
2016-10-22T12:01:55.696Z,1008.12
2016-10-22T12:02:55.703Z,1008.14
2016-10-22T12:03:55.712Z,1008.12
2016-10-22T12:04:55.721Z,1008.15
2016-10-22T12:05:55.726Z,1008.15
2016-10-22T12:06:55.786Z,1008.14
2016-10-22T12:07:55.743Z,1008.12
2016-10-22T12:08:55.752Z,1008.12
2016-10-22T12:09:55.806Z,1008.13
2016-10-22T12:10:55.817Z,1008.12
2016-10-22T12:11:55.774Z,1008.13